sensor_id;sensor_type;location;lat;lon;timestamp;pressure;altitude;pressure_sealevel;temperature;humidity
47763;BME280;33526;42.690;23.322;2023-05-16T00:00:05;94784.31;;;13.82;93.97
47763;BME280;33526;42.690;23.322;2023-05-16T00:02:33;94768.88;;;13.71;94.12
47763;BME280;33526;42.690;23.322;2023-05-16T00:05:00;94786.84;;;13.80;94.50
47763;BME280;33526;42.690;23.322;2023-05-16T00:07:25;94736.78;;;13.52;94.47
47763;BME280;33526;42.690;23.322;2023-05-16T00:09:51;94731.44;;;13.54;94.24
47763;BME280;33526;42.690;23.322;2023-05-16T00:12:16;94774.59;;;13.83;94.30
47763;BME280;33526;42.690;23.322;2023-05-16T00:14:42;94775.88;;;13.82;94.42
47763;BME280;33526;42.690;23.322;2023-05-16T00:17:07;94768.94;;;13.77;94.63
47763;BME280;33526;42.690;23.322;2023-05-16T00:19:37;94762.28;;;13.74;94.89
47763;BME280;33526;42.690;23.322;2023-05-16T00:22:04;94766.13;;;13.77;94.97
47763;BME280;33526;42.690;23.322;2023-05-16T00:24:29;94772.53;;;13.77;94.79
47763;BME280;33526;42.690;23.322;2023-05-16T00:26:55;94773.06;;;13.82;94.63
47763;BME280;33526;42.690;23.322;2023-05-16T00:29:20;94746.59;;;13.62;94.62
47763;BME280;33526;42.690;23.322;2023-05-16T00:31:48;94747.41;;;13.68;94.90
47763;BME280;33526;42.690;23.322;2023-05-16T00:34:14;94763.56;;;13.79;94.62
47763;BME280;33526;42.690;23.322;2023-05-16T00:36:39;94761.28;;;13.77;94.63
47763;BME280;33526;42.690;23.322;2023-05-16T00:39:04;94733.25;;;13.57;94.96
47763;BME280;33526;42.690;23.322;2023-05-16T00:41:30;94763.25;;;13.71;95.34
47763;BME280;33526;42.690;23.322;2023-05-16T00:43:55;94740.69;;;13.60;95.48
47763;BME280;33526;42.690;23.322;2023-05-16T00:46:21;94722.78;;;13.57;95.64
47763;BME280;33526;42.690;23.322;2023-05-16T00:48:47;94730.72;;;13.59;95.65
47763;BME280;33526;42.690;23.322;2023-05-16T00:51:12;94725.09;;;13.59;96.01
47763;BME280;33526;42.690;23.322;2023-05-16T00:53:38;94705.88;;;13.52;95.66
47763;BME280;33526;42.690;23.322;2023-05-16T00:56:04;94736.00;;;13.77;95.50
47763;BME280;33526;42.690;23.322;2023-05-16T00:58:31;94699.06;;;13.58;95.23
47763;BME280;33526;42.690;23.322;2023-05-16T01:00:59;94729.28;;;13.69;95.53
47763;BME280;33526;42.690;23.322;2023-05-16T01:03:26;94731.09;;;13.72;95.52
47763;BME280;33526;42.690;23.322;2023-05-16T01:05:51;94693.84;;;13.46;95.71
47763;BME280;33526;42.690;23.322;2023-05-16T01:08:17;94725.16;;;13.65;95.60
47763;BME280;33526;42.690;23.322;2023-05-16T01:10:56;94732.09;;;13.69;95.50
47763;BME280;33526;42.690;23.322;2023-05-16T01:13:31;94718.22;;;13.60;94.98
47763;BME280;33526;42.690;23.322;2023-05-16T01:16:09;94712.88;;;13.62;95.24
47763;BME280;33526;42.690;23.322;2023-05-16T01:19:00;94721.41;;;13.73;95.30
47763;BME280;33526;42.690;23.322;2023-05-16T01:21:48;94712.16;;;13.67;95.19
47763;BME280;33526;42.690;23.322;2023-05-16T01:26:55;94681.91;;;13.51;94.42
47763;BME280;33526;42.690;23.322;2023-05-16T01:29:21;94704.69;;;13.58;94.91
47763;BME280;33526;42.690;23.322;2023-05-16T01:31:46;94709.88;;;13.71;94.88
47763;BME280;33526;42.690;23.322;2023-05-16T01:34:12;94668.13;;;13.53;94.79
47763;BME280;33526;42.690;23.322;2023-05-16T01:42:51;94675.91;;;13.69;94.53
47763;BME280;33526;42.690;23.322;2023-05-16T01:45:28;94665.22;;;13.73;94.29
47763;BME280;33526;42.690;23.322;2023-05-16T01:48:12;94680.53;;;13.72;94.20
47763;BME280;33526;42.690;23.322;2023-05-16T01:50:48;94687.16;;;13.69;93.70
47763;BME280;33526;42.690;23.322;2023-05-16T01:53:22;94672.19;;;13.52;94.46
47763;BME280;33526;42.690;23.322;2023-05-16T01:55:56;94680.72;;;13.63;94.27
47763;BME280;33526;42.690;23.322;2023-05-16T01:58:25;94675.38;;;13.65;93.91
47763;BME280;33526;42.690;23.322;2023-05-16T02:01:03;94684.25;;;13.58;94.12
47763;BME280;33526;42.690;23.322;2023-05-16T02:03:30;94691.66;;;13.61;93.84
47763;BME280;33526;42.690;23.322;2023-05-16T02:05:56;94654.44;;;13.34;94.20
47763;BME280;33526;42.690;23.322;2023-05-16T02:08:23;94678.38;;;13.56;94.29
47763;BME280;33526;42.690;23.322;2023-05-16T02:10:48;94685.56;;;13.63;94.04
47763;BME280;33526;42.690;23.322;2023-05-16T02:13:14;94672.78;;;13.62;93.83
47763;BME280;33526;42.690;23.322;2023-05-16T02:15:39;94675.34;;;13.60;93.60
47763;BME280;33526;42.690;23.322;2023-05-16T02:18:05;94666.69;;;13.63;93.14
47763;BME280;33526;42.690;23.322;2023-05-16T02:20:30;94674.38;;;13.68;92.86
47763;BME280;33526;42.690;23.322;2023-05-16T02:22:55;94673.59;;;13.68;92.82
47763;BME280;33526;42.690;23.322;2023-05-16T02:25:21;94671.56;;;13.68;92.79
47763;BME280;33526;42.690;23.322;2023-05-16T02:27:47;94671.84;;;13.70;92.60
47763;BME280;33526;42.690;23.322;2023-05-16T02:30:13;94628.16;;;13.37;92.83
47763;BME280;33526;42.690;23.322;2023-05-16T02:32:39;94670.75;;;13.62;93.23
47763;BME280;33526;42.690;23.322;2023-05-16T02:35:05;94658.72;;;13.56;92.92
47763;BME280;33526;42.690;23.322;2023-05-16T02:37:32;94651.28;;;13.53;92.57
47763;BME280;33526;42.690;23.322;2023-05-16T02:39:57;94684.59;;;13.71;92.46
47763;BME280;33526;42.690;23.322;2023-05-16T02:42:24;94691.50;;;13.70;91.88
47763;BME280;33526;42.690;23.322;2023-05-16T02:44:51;94682.97;;;13.59;92.08
47763;BME280;33526;42.690;23.322;2023-05-16T02:47:16;94657.34;;;13.46;92.26
47763;BME280;33526;42.690;23.322;2023-05-16T02:49:41;94663.75;;;13.52;92.29
47763;BME280;33526;42.690;23.322;2023-05-16T02:52:07;94664.47;;;13.47;92.56
47763;BME280;33526;42.690;23.322;2023-05-16T02:54:32;94669.66;;;13.54;92.50
47763;BME280;33526;42.690;23.322;2023-05-16T02:56:58;94657.63;;;13.48;93.04
47763;BME280;33526;42.690;23.322;2023-05-16T02:59:23;94620.88;;;13.25;92.89
47763;BME280;33526;42.690;23.322;2023-05-16T03:01:48;94647.88;;;13.43;92.91
47763;BME280;33526;42.690;23.322;2023-05-16T03:04:14;94657.88;;;13.50;92.97
47763;BME280;33526;42.690;23.322;2023-05-16T03:06:39;94632.78;;;13.41;92.97
47763;BME280;33526;42.690;23.322;2023-05-16T03:09:05;94657.44;;;13.57;92.92
47763;BME280;33526;42.690;23.322;2023-05-16T03:11:31;94660.50;;;13.59;92.45
47763;BME280;33526;42.690;23.322;2023-05-16T03:13:57;94648.75;;;13.55;92.46
47763;BME280;33526;42.690;23.322;2023-05-16T03:16:24;94642.03;;;13.47;92.49
47763;BME280;33526;42.690;23.322;2023-05-16T03:18:49;94653.38;;;13.58;92.65
47763;BME280;33526;42.690;23.322;2023-05-16T03:21:15;94642.13;;;13.58;92.64
47763;BME280;33526;42.690;23.322;2023-05-16T03:23:40;94589.66;;;13.12;93.26
47763;BME280;33526;42.690;23.322;2023-05-16T03:26:06;94645.06;;;13.43;93.32
47763;BME280;33526;42.690;23.322;2023-05-16T03:28:31;94613.88;;;13.35;93.31
47763;BME280;33526;42.690;23.322;2023-05-16T03:30:57;94614.28;;;13.28;93.59
47763;BME280;33526;42.690;23.322;2023-05-16T03:33:23;94650.28;;;13.56;93.06
47763;BME280;33526;42.690;23.322;2023-05-16T03:35:48;94645.25;;;13.66;92.58
47763;BME280;33526;42.690;23.322;2023-05-16T03:38:15;94648.13;;;13.77;92.26
47763;BME280;33526;42.690;23.322;2023-05-16T03:40:41;94632.97;;;13.63;92.18
47763;BME280;33526;42.690;23.322;2023-05-16T03:43:07;94639.13;;;13.67;92.13
47763;BME280;33526;42.690;23.322;2023-05-16T03:45:33;94593.28;;;13.50;91.84
47763;BME280;33526;42.690;23.322;2023-05-16T03:47:58;94643.53;;;13.74;91.51
47763;BME280;33526;42.690;23.322;2023-05-16T03:50:24;94632.97;;;13.63;91.53
47763;BME280;33526;42.690;23.322;2023-05-16T03:52:50;94636.34;;;13.73;91.82
47763;BME280;33526;42.690;23.322;2023-05-16T03:55:18;94634.03;;;13.71;91.45
47763;BME280;33526;42.690;23.322;2023-05-16T03:57:44;94654.31;;;13.81;91.45
47763;BME280;33526;42.690;23.322;2023-05-16T04:00:10;94638.19;;;13.76;91.30
47763;BME280;33526;42.690;23.322;2023-05-16T04:02:37;94640.19;;;13.75;91.23
47763;BME280;33526;42.690;23.322;2023-05-16T04:05:08;94646.91;;;13.84;91.36
47763;BME280;33526;42.690;23.322;2023-05-16T04:07:45;94631.97;;;13.66;91.50
47763;BME280;33526;42.690;23.322;2023-05-16T04:10:11;94644.28;;;13.74;91.63
47763;BME280;33526;42.690;23.322;2023-05-16T04:12:41;94650.97;;;13.83;91.50
47763;BME280;33526;42.690;23.322;2023-05-16T04:15:07;94658.66;;;13.88;90.97
47763;BME280;33526;42.690;23.322;2023-05-16T04:17:36;94652.06;;;13.91;90.42
47763;BME280;33526;42.690;23.322;2023-05-16T04:20:03;94656.69;;;13.94;90.25
47763;BME280;33526;42.690;23.322;2023-05-16T04:22:29;94628.94;;;13.75;90.54
47763;BME280;33526;42.690;23.322;2023-05-16T04:24:55;94565.09;;;13.33;90.39
47763;BME280;33526;42.690;23.322;2023-05-16T04:27:40;94655.97;;;14.05;89.88
47763;BME280;33526;42.690;23.322;2023-05-16T04:30:06;94652.69;;;14.06;89.32
47763;BME280;33526;42.690;23.322;2023-05-16T04:32:32;94640.13;;;14.02;88.81
47763;BME280;33526;42.690;23.322;2023-05-16T04:35:00;94647.09;;;14.12;88.73
47763;BME280;33526;42.690;23.322;2023-05-16T04:37:28;94635.09;;;14.17;88.49
47763;BME280;33526;42.690;23.322;2023-05-16T04:39:55;94633.81;;;14.18;87.84
47763;BME280;33526;42.690;23.322;2023-05-16T04:42:25;94633.78;;;14.12;87.49
47763;BME280;33526;42.690;23.322;2023-05-16T04:44:55;94645.31;;;14.20;87.43
47763;BME280;33526;42.690;23.322;2023-05-16T04:47:41;94644.06;;;14.21;87.48
47763;BME280;33526;42.690;23.322;2023-05-16T04:50:08;94638.19;;;14.19;87.71
47763;BME280;33526;42.690;23.322;2023-05-16T04:52:39;94641.97;;;14.10;88.39
47763;BME280;33526;42.690;23.322;2023-05-16T04:55:08;94659.34;;;14.14;88.66
47763;BME280;33526;42.690;23.322;2023-05-16T04:57:35;94652.47;;;14.15;88.50
47763;BME280;33526;42.690;23.322;2023-05-16T05:00:05;94634.78;;;14.09;88.39
47763;BME280;33526;42.690;23.322;2023-05-16T05:02:38;94636.59;;;14.12;88.38
47763;BME280;33526;42.690;23.322;2023-05-16T05:05:05;94638.19;;;14.19;88.31
47763;BME280;33526;42.690;23.322;2023-05-16T05:07:34;94644.31;;;14.23;87.99
47763;BME280;33526;42.690;23.322;2023-05-16T05:23:34;94497.09;;;13.23;87.57
47763;BME280;33526;42.690;23.322;2023-05-16T05:26:00;94530.53;;;13.53;87.71
47763;BME280;33526;42.690;23.322;2023-05-16T05:28:52;94538.44;;;13.54;87.62
47763;BME280;33526;42.690;23.322;2023-05-16T05:31:40;94516.75;;;13.55;87.55
47763;BME280;33526;42.690;23.322;2023-05-16T05:34:23;94545.44;;;13.70;87.46
47763;BME280;33526;42.690;23.322;2023-05-16T05:36:52;94566.75;;;13.94;87.60
47763;BME280;33526;42.690;23.322;2023-05-16T05:39:34;94576.50;;;14.04;86.75
47763;BME280;33526;42.690;23.322;2023-05-16T05:42:06;94589.88;;;14.21;85.95
47763;BME280;33526;42.690;23.322;2023-05-16T05:44:37;94554.81;;;14.10;85.40
47763;BME280;33526;42.690;23.322;2023-05-16T05:47:03;94543.31;;;14.08;84.82
47763;BME280;33526;42.690;23.322;2023-05-16T05:50:02;94487.81;;;13.92;84.13
47763;BME280;33526;42.690;23.322;2023-05-16T05:53:16;94628.47;;;14.80;84.15
47763;BME280;33526;42.690;23.322;2023-05-16T06:07:10;94616.72;;;14.87;84.27
47763;BME280;33526;42.690;23.322;2023-05-16T06:10:48;94632.63;;;15.02;83.96
47763;BME280;33526;42.690;23.322;2023-05-16T06:14:19;94620.06;;;14.97;83.51
47763;BME280;33526;42.690;23.322;2023-05-16T06:17:14;94626.97;;;15.02;82.95
47763;BME280;33526;42.690;23.322;2023-05-16T06:25:15;94628.50;;;15.14;83.12
47763;BME280;33526;42.690;23.322;2023-05-16T06:28:21;94591.66;;;14.89;82.58
47763;BME280;33526;42.690;23.322;2023-05-16T06:31:17;94621.38;;;15.13;82.93
47763;BME280;33526;42.690;23.322;2023-05-16T06:33:58;94615.22;;;15.20;81.71
47763;BME280;33526;42.690;23.322;2023-05-16T06:36:45;94513.28;;;14.48;82.04
47763;BME280;33526;42.690;23.322;2023-05-16T06:39:54;94499.97;;;14.49;81.24
47763;BME280;33526;42.690;23.322;2023-05-16T06:42:20;94564.25;;;15.01;80.89
47763;BME280;33526;42.690;23.322;2023-05-16T06:44:48;94600.91;;;15.24;80.81
47763;BME280;33526;42.690;23.322;2023-05-16T06:47:13;94590.66;;;15.15;80.10
47763;BME280;33526;42.690;23.322;2023-05-16T06:49:39;94609.59;;;15.32;80.36
47763;BME280;33526;42.690;23.322;2023-05-16T06:52:05;94604.72;;;15.32;80.61
47763;BME280;33526;42.690;23.322;2023-05-16T06:54:30;94593.97;;;15.19;81.16
47763;BME280;33526;42.690;23.322;2023-05-16T06:57:00;94599.59;;;15.25;81.15
47763;BME280;33526;42.690;23.322;2023-05-16T06:59:27;94602.94;;;15.35;81.26
47763;BME280;33526;42.690;23.322;2023-05-16T07:01:57;94588.84;;;15.40;81.58
47763;BME280;33526;42.690;23.322;2023-05-16T07:04:23;94583.25;;;15.29;79.78
47763;BME280;33526;42.690;23.322;2023-05-16T07:06:53;94587.06;;;15.32;79.91
47763;BME280;33526;42.690;23.322;2023-05-16T07:09:21;94562.25;;;15.19;79.65
47763;BME280;33526;42.690;23.322;2023-05-16T07:11:47;94584.78;;;15.41;79.13
47763;BME280;33526;42.690;23.322;2023-05-16T07:14:12;94578.09;;;15.44;78.91
47763;BME280;33526;42.690;23.322;2023-05-16T07:16:42;94583.72;;;15.50;78.86
47763;BME280;33526;42.690;23.322;2023-05-16T07:19:10;94576.81;;;15.51;78.63
47763;BME280;33526;42.690;23.322;2023-05-16T07:21:37;94570.91;;;15.66;78.12
47763;BME280;33526;42.690;23.322;2023-05-16T07:24:03;94567.81;;;15.81;77.42
47763;BME280;33526;42.690;23.322;2023-05-16T07:26:30;94551.16;;;15.72;76.77
47763;BME280;33526;42.690;23.322;2023-05-16T07:28:56;94559.91;;;15.74;76.62
47763;BME280;33526;42.690;23.322;2023-05-16T07:31:23;94556.84;;;15.77;76.46
47763;BME280;33526;42.690;23.322;2023-05-16T07:33:51;94571.66;;;15.89;76.50
47763;BME280;33526;42.690;23.322;2023-05-16T07:36:19;94558.84;;;15.88;76.47
47763;BME280;33526;42.690;23.322;2023-05-16T07:38:46;94568.03;;;16.05;76.09
47763;BME280;33526;42.690;23.322;2023-05-16T07:41:15;94564.19;;;16.09;75.68
47763;BME280;33526;42.690;23.322;2023-05-16T07:43:40;94554.63;;;16.23;75.33
47763;BME280;33526;42.690;23.322;2023-05-16T07:46:06;94564.34;;;16.33;74.77
47763;BME280;33526;42.690;23.322;2023-05-16T07:48:31;94533.91;;;16.09;73.76
47763;BME280;33526;42.690;23.322;2023-05-16T07:50:57;94577.88;;;16.46;73.72
47763;BME280;33526;42.690;23.322;2023-05-16T07:53:22;94552.75;;;16.42;73.75
47763;BME280;33526;42.690;23.322;2023-05-16T07:55:48;94571.63;;;16.65;73.09
47763;BME280;33526;42.690;23.322;2023-05-16T07:58:14;94575.97;;;16.71;73.09
47763;BME280;33526;42.690;23.322;2023-05-16T08:00:39;94552.91;;;16.61;73.04
47763;BME280;33526;42.690;23.322;2023-05-16T08:03:05;94543.97;;;16.57;72.37
47763;BME280;33526;42.690;23.322;2023-05-16T08:05:31;94572.81;;;16.80;72.78
47763;BME280;33526;42.690;23.322;2023-05-16T08:07:56;94558.03;;;16.63;71.94
47763;BME280;33526;42.690;23.322;2023-05-16T08:10:22;94553.44;;;16.60;72.39
47763;BME280;33526;42.690;23.322;2023-05-16T08:12:48;94548.88;;;16.46;72.45
47763;BME280;33526;42.690;23.322;2023-05-16T08:15:15;94544.16;;;16.65;72.51
47763;BME280;33526;42.690;23.322;2023-05-16T08:17:40;94494.13;;;16.24;72.21
47763;BME280;33526;42.690;23.322;2023-05-16T08:20:06;94469.47;;;16.30;72.15
47763;BME280;33526;42.690;23.322;2023-05-16T08:22:32;94529.72;;;16.74;71.83
47763;BME280;33526;42.690;23.322;2023-05-16T08:24:58;94529.19;;;16.81;71.77
47763;BME280;33526;42.690;23.322;2023-05-16T08:27:26;94507.13;;;16.86;71.38
47763;BME280;33526;42.690;23.322;2023-05-16T08:29:51;94530.22;;;17.20;71.05
47763;BME280;33526;42.690;23.322;2023-05-16T08:32:16;94522.50;;;17.20;70.47
47763;BME280;33526;42.690;23.322;2023-05-16T08:34:43;94528.09;;;17.26;69.63
47763;BME280;33526;42.690;23.322;2023-05-16T08:37:09;94526.78;;;17.33;69.95
47763;BME280;33526;42.690;23.322;2023-05-16T08:39:35;94503.50;;;17.21;69.78
47763;BME280;33526;42.690;23.322;2023-05-16T08:42:02;94518.06;;;17.31;69.63
47763;BME280;33526;42.690;23.322;2023-05-16T08:44:29;94521.09;;;17.63;68.99
47763;BME280;33526;42.690;23.322;2023-05-16T08:46:57;94506.53;;;17.53;68.35
47763;BME280;33526;42.690;23.322;2023-05-16T08:49:33;94474.00;;;17.47;67.50
47763;BME280;33526;42.690;23.322;2023-05-16T08:52:01;94432.25;;;17.34;67.31
47763;BME280;33526;42.690;23.322;2023-05-16T08:54:29;94470.84;;;17.75;66.77
47763;BME280;33526;42.690;23.322;2023-05-16T08:56:57;94446.53;;;17.66;66.13
47763;BME280;33526;42.690;23.322;2023-05-16T08:59:56;94555.56;;;18.73;66.01
47763;BME280;33526;42.690;23.322;2023-05-16T09:02:26;94515.41;;;18.75;64.24
47763;BME280;33526;42.690;23.322;2023-05-16T09:04:55;94559.88;;;18.99;63.85
47763;BME280;33526;42.690;23.322;2023-05-16T09:07:22;94511.88;;;18.69;63.51
47763;BME280;33526;42.690;23.322;2023-05-16T09:09:47;94531.41;;;18.91;63.80
47763;BME280;33526;42.690;23.322;2023-05-16T09:12:13;94543.16;;;19.15;63.49
47763;BME280;33526;42.690;23.322;2023-05-16T09:14:38;94517.59;;;19.01;63.03
47763;BME280;33526;42.690;23.322;2023-05-16T09:17:06;94513.56;;;18.78;63.06
47763;BME280;33526;42.690;23.322;2023-05-16T09:19:36;94536.53;;;18.93;63.36
47763;BME280;33526;42.690;23.322;2023-05-16T09:22:02;94505.16;;;18.91;63.21
47763;BME280;33526;42.690;23.322;2023-05-16T09:24:28;94529.84;;;19.09;62.28
47763;BME280;33526;42.690;23.322;2023-05-16T09:26:53;94568.25;;;19.24;62.94
47763;BME280;33526;42.690;23.322;2023-05-16T09:29:19;94556.25;;;19.18;62.66
47763;BME280;33526;42.690;23.322;2023-05-16T09:31:44;94569.19;;;19.13;62.50
47763;BME280;33526;42.690;23.322;2023-05-16T09:34:09;94542.19;;;18.93;62.37
47763;BME280;33526;42.690;23.322;2023-05-16T09:36:37;94539.81;;;18.97;62.77
47763;BME280;33526;42.690;23.322;2023-05-16T09:39:04;94536.16;;;18.83;62.69
47763;BME280;33526;42.690;23.322;2023-05-16T09:41:33;94545.44;;;18.84;62.76
47763;BME280;33526;42.690;23.322;2023-05-16T09:44:03;94535.69;;;18.98;63.07
47763;BME280;33526;42.690;23.322;2023-05-16T09:46:28;94518.22;;;18.94;62.79
47763;BME280;33526;42.690;23.322;2023-05-16T09:48:54;94508.72;;;18.72;63.04
47763;BME280;33526;42.690;23.322;2023-05-16T09:51:21;94538.44;;;18.85;63.49
47763;BME280;33526;42.690;23.322;2023-05-16T09:53:46;94504.78;;;18.62;63.36
47763;BME280;33526;42.690;23.322;2023-05-16T09:56:13;94528.22;;;18.82;63.13
47763;BME280;33526;42.690;23.322;2023-05-16T09:58:41;94527.09;;;19.04;62.67
47763;BME280;33526;42.690;23.322;2023-05-16T10:01:07;94520.50;;;19.15;62.29
47763;BME280;33526;42.690;23.322;2023-05-16T10:03:34;94518.50;;;19.28;61.93
47763;BME280;33526;42.690;23.322;2023-05-16T10:06:00;94517.34;;;19.51;61.51
47763;BME280;33526;42.690;23.322;2023-05-16T10:08:26;94522.09;;;19.42;61.30
47763;BME280;33526;42.690;23.322;2023-05-16T10:10:53;94514.28;;;19.48;60.76
47763;BME280;33526;42.690;23.322;2023-05-16T10:13:30;94533.91;;;19.46;61.25
47763;BME280;33526;42.690;23.322;2023-05-16T10:15:58;94493.97;;;19.31;60.67
47763;BME280;33526;42.690;23.322;2023-05-16T10:18:28;94526.84;;;19.66;60.88
47763;BME280;33526;42.690;23.322;2023-05-16T10:20:55;94534.00;;;19.86;60.39
47763;BME280;33526;42.690;23.322;2023-05-16T10:23:24;94518.94;;;19.92;59.87
47763;BME280;33526;42.690;23.322;2023-05-16T10:25:51;94528.31;;;20.00;59.57
47763;BME280;33526;42.690;23.322;2023-05-16T10:28:19;94541.00;;;19.99;60.04
47763;BME280;33526;42.690;23.322;2023-05-16T10:30:45;94514.34;;;19.75;59.82
47763;BME280;33526;42.690;23.322;2023-05-16T10:33:16;94496.63;;;19.69;60.39
47763;BME280;33526;42.690;23.322;2023-05-16T10:35:42;94524.31;;;19.95;60.32
47763;BME280;33526;42.690;23.322;2023-05-16T10:38:09;94491.00;;;19.82;59.96
47763;BME280;33526;42.690;23.322;2023-05-16T10:40:37;94502.56;;;19.98;60.32
47763;BME280;33526;42.690;23.322;2023-05-16T10:43:03;94481.84;;;20.03;60.71
47763;BME280;33526;42.690;23.322;2023-05-16T10:45:29;94480.09;;;19.86;61.06
47763;BME280;33526;42.690;23.322;2023-05-16T10:47:57;94455.44;;;20.08;60.49
47763;BME280;33526;42.690;23.322;2023-05-16T10:50:43;94450.06;;;20.31;60.29
47763;BME280;33526;42.690;23.322;2023-05-16T10:53:21;94474.78;;;20.71;59.82
47763;BME280;33526;42.690;23.322;2023-05-16T10:56:08;94472.16;;;20.73;59.40
47763;BME280;33526;42.690;23.322;2023-05-16T11:09:04;94486.09;;;20.23;59.41
47763;BME280;33526;42.690;23.322;2023-05-16T11:11:40;94488.50;;;20.19;59.58
47763;BME280;33526;42.690;23.322;2023-05-16T11:14:06;94483.81;;;20.08;60.32
47763;BME280;33526;42.690;23.322;2023-05-16T11:16:33;94492.53;;;19.97;61.35
47763;BME280;33526;42.690;23.322;2023-05-16T11:19:06;94493.19;;;20.03;61.39
47763;BME280;33526;42.690;23.322;2023-05-16T11:24:52;94503.44;;;19.79;63.02
47763;BME280;33526;42.690;23.322;2023-05-16T11:27:32;94508.66;;;19.75;61.68
47763;BME280;33526;42.690;23.322;2023-05-16T11:32:41;94508.66;;;19.75;61.95
47763;BME280;33526;42.690;23.322;2023-05-16T11:35:10;94499.03;;;19.65;62.19
47763;BME280;33526;42.690;23.322;2023-05-16T11:37:37;94492.47;;;19.57;62.20
47763;BME280;33526;42.690;23.322;2023-05-16T11:40:05;94474.59;;;19.48;61.87
47763;BME280;33526;42.690;23.322;2023-05-16T11:42:40;94477.44;;;19.48;62.55
47763;BME280;33526;42.690;23.322;2023-05-16T11:45:07;94497.19;;;19.67;63.04
47763;BME280;33526;42.690;23.322;2023-05-16T11:47:35;94470.16;;;19.66;62.33
47763;BME280;33526;42.690;23.322;2023-05-16T11:50:10;94468.72;;;19.60;62.41
47763;BME280;33526;42.690;23.322;2023-05-16T11:52:36;94450.63;;;19.63;62.17
47763;BME280;33526;42.690;23.322;2023-05-16T11:55:06;94375.16;;;19.20;61.89
47763;BME280;33526;42.690;23.322;2023-05-16T11:57:32;94445.19;;;19.78;60.96
47763;BME280;33526;42.690;23.322;2023-05-16T12:00:12;94468.50;;;20.11;60.79
47763;BME280;33526;42.690;23.322;2023-05-16T12:02:41;94406.13;;;19.98;60.17
47763;BME280;33526;42.690;23.322;2023-05-16T12:05:09;94437.69;;;20.42;59.16
47763;BME280;33526;42.690;23.322;2023-05-16T12:07:36;94429.56;;;20.59;58.83
47763;BME280;33526;42.690;23.322;2023-05-16T12:10:09;94463.03;;;21.09;58.10
47763;BME280;33526;42.690;23.322;2023-05-16T12:12:38;94415.84;;;21.06;57.07
47763;BME280;33526;42.690;23.322;2023-05-16T12:15:07;94430.34;;;21.44;55.78
47763;BME280;33526;42.690;23.322;2023-05-16T12:17:35;94426.69;;;21.57;55.31
47763;BME280;33526;42.690;23.322;2023-05-16T12:20:04;94450.13;;;22.07;54.49
47763;BME280;33526;42.690;23.322;2023-05-16T12:22:38;94387.38;;;21.48;54.34
47763;BME280;33526;42.690;23.322;2023-05-16T12:27:53;94339.81;;;21.48;54.60
47763;BME280;33526;42.690;23.322;2023-05-16T12:30:25;94411.25;;;22.10;53.47
47763;BME280;33526;42.690;23.322;2023-05-16T12:33:15;94430.22;;;21.79;54.83
47763;BME280;33526;42.690;23.322;2023-05-16T12:35:43;94436.53;;;21.56;55.15
47763;BME280;33526;42.690;23.322;2023-05-16T12:38:10;94415.53;;;21.17;56.04
47763;BME280;33526;42.690;23.322;2023-05-16T12:40:38;94320.59;;;20.28;56.76
47763;BME280;33526;42.690;23.322;2023-05-16T12:45:40;94412.59;;;21.02;56.84
47763;BME280;33526;42.690;23.322;2023-05-16T12:48:12;94451.03;;;21.24;56.93
47763;BME280;33526;42.690;23.322;2023-05-16T12:50:39;94323.78;;;20.24;57.51
47763;BME280;33526;42.690;23.322;2023-05-16T12:53:11;94460.69;;;20.99;57.56
47763;BME280;33526;42.690;23.322;2023-05-16T12:55:37;94392.03;;;20.53;57.69
47763;BME280;33526;42.690;23.322;2023-05-16T12:58:03;94428.00;;;20.72;57.54
47763;BME280;33526;42.690;23.322;2023-05-16T13:00:30;94423.00;;;20.65;58.59
47763;BME280;33526;42.690;23.322;2023-05-16T13:02:56;94388.16;;;20.30;59.57
47763;BME280;33526;42.690;23.322;2023-05-16T13:05:25;94471.44;;;20.46;60.43
47763;BME280;33526;42.690;23.322;2023-05-16T13:07:51;94394.16;;;19.78;60.91
47763;BME280;33526;42.690;23.322;2023-05-16T13:10:18;94393.47;;;19.59;62.05
47763;BME280;33526;42.690;23.322;2023-05-16T13:13:47;94432.75;;;19.81;62.02
47763;BME280;33526;42.690;23.322;2023-05-16T13:17:27;94479.88;;;19.98;62.69
47763;BME280;33526;42.690;23.322;2023-05-16T13:20:58;94475.28;;;19.95;62.73
47763;BME280;33526;42.690;23.322;2023-05-16T14:03:51;94499.91;;;19.46;64.94
47763;BME280;33526;42.690;23.322;2023-05-16T14:07:04;94441.06;;;19.07;63.26
47763;BME280;33526;42.690;23.322;2023-05-16T14:09:30;94455.56;;;19.17;64.62
47763;BME280;33526;42.690;23.322;2023-05-16T14:11:59;94474.34;;;19.33;64.72
47763;BME280;33526;42.690;23.322;2023-05-16T14:14:28;94481.53;;;19.34;65.25
47763;BME280;33526;42.690;23.322;2023-05-16T14:16:56;94477.22;;;19.46;63.81
47763;BME280;33526;42.690;23.322;2023-05-16T14:19:21;94462.47;;;19.48;63.83
47763;BME280;33526;42.690;23.322;2023-05-16T14:21:47;94382.53;;;18.96;65.23
47763;BME280;33526;42.690;23.322;2023-05-16T14:24:13;94420.03;;;19.16;66.13
47763;BME280;33526;42.690;23.322;2023-05-16T14:26:39;94431.13;;;19.00;67.98
47763;BME280;33526;42.690;23.322;2023-05-16T14:29:06;94434.38;;;19.04;68.10
47763;BME280;33526;42.690;23.322;2023-05-16T14:31:34;94459.88;;;19.04;67.67
47763;BME280;33526;42.690;23.322;2023-05-16T14:34:03;94407.97;;;18.83;67.45
47763;BME280;33526;42.690;23.322;2023-05-16T14:36:29;94393.91;;;18.58;68.20
47763;BME280;33526;42.690;23.322;2023-05-16T14:38:57;94433.94;;;18.49;68.84
47763;BME280;33526;42.690;23.322;2023-05-16T14:41:29;94456.44;;;18.41;69.70
47763;BME280;33526;42.690;23.322;2023-05-16T14:43:54;94542.75;;;18.91;70.32
47763;BME280;33526;42.690;23.322;2023-05-16T14:46:35;94460.78;;;18.23;70.74